createdAt,value
2017-04-22T00:00:37.656Z,0
2017-04-22T00:01:48.674Z,0
2017-04-22T00:02:59.713Z,0
2017-04-22T00:04:10.756Z,0
2017-04-22T00:05:22.013Z,0
2017-04-22T00:06:33.031Z,0
2017-04-22T00:07:44.096Z,0
2017-04-22T00:08:55.126Z,0
2017-04-22T00:10:06.157Z,0
2017-04-22T00:11:17.186Z,0
2017-04-22T00:12:28.612Z,0
2017-04-22T00:13:39.835Z,0
2017-04-22T00:14:50.874Z,0
2017-04-22T00:16:01.887Z,0
2017-04-22T00:17:12.894Z,0
2017-04-22T00:18:23.927Z,0
2017-04-22T00:19:34.954Z,0
2017-04-22T00:20:45.975Z,0
2017-04-22T00:21:57.204Z,0
2017-04-22T00:23:08.273Z,0
2017-04-22T00:24:19.332Z,0
2017-04-22T00:25:30.648Z,0
2017-04-22T00:26:41.684Z,0
2017-04-22T00:27:52.729Z,0
2017-04-22T00:29:03.983Z,0
2017-04-22T00:30:15.427Z,0
2017-04-22T00:31:26.662Z,0
2017-04-22T00:32:37.679Z,0
2017-04-22T00:33:48.754Z,0
2017-04-22T00:34:59.779Z,0
2017-04-22T00:36:10.806Z,0
2017-04-22T00:37:22.021Z,0
2017-04-22T00:38:33.047Z,0
2017-04-22T00:39:44.072Z,0
2017-04-22T00:40:55.300Z,0
2017-04-22T00:42:06.316Z,0
2017-04-22T00:43:17.345Z,0
2017-04-22T00:44:28.375Z,0
2017-04-22T00:45:39.603Z,0
2017-04-22T00:46:50.627Z,0
2017-04-22T00:48:02.053Z,0
2017-04-22T00:49:13.128Z,0
2017-04-22T00:50:24.378Z,0
2017-04-22T00:51:35.533Z,0
2017-04-22T00:52:46.615Z,0
2017-04-22T00:53:57.833Z,0
2017-04-22T00:55:08.857Z,0
2017-04-22T00:56:19.894Z,0
2017-04-22T00:57:31.119Z,0
2017-04-22T00:58:42.158Z,0
2017-04-22T00:59:53.195Z,0
2017-04-22T01:01:04.216Z,0
2017-04-22T01:02:15.255Z,0
2017-04-22T01:03:26.472Z,0
2017-04-22T01:04:37.545Z,0
2017-04-22T01:05:48.762Z,0
2017-04-22T01:06:59.785Z,0
2017-04-22T01:08:11.009Z,0
2017-04-22T01:09:22.036Z,0
2017-04-22T01:10:33.062Z,0
2017-04-22T01:11:44.094Z,0
2017-04-22T01:12:55.122Z,0
2017-04-22T01:14:06.353Z,0
2017-04-22T01:15:17.678Z,0
2017-04-22T01:16:28.797Z,0
2017-04-22T01:17:40.145Z,0
2017-04-22T01:18:51.353Z,0
2017-04-22T01:20:02.552Z,0
2017-04-22T01:21:13.567Z,0
2017-04-22T01:22:24.594Z,0
2017-04-22T01:23:35.633Z,0
2017-04-22T01:24:46.680Z,0
2017-04-22T01:25:57.696Z,0
2017-04-22T01:27:08.731Z,0
2017-04-22T01:28:19.772Z,0
2017-04-22T01:29:30.800Z,0
2017-04-22T01:30:41.849Z,0
2017-04-22T01:31:52.919Z,0
2017-04-22T01:33:03.947Z,0
2017-04-22T01:34:14.977Z,0
2017-04-22T01:35:26.007Z,0
2017-04-22T01:36:37.029Z,0
2017-04-22T01:37:48.093Z,0
2017-04-22T01:38:59.117Z,0
2017-04-22T01:40:10.152Z,0
2017-04-22T01:41:21.371Z,0
2017-04-22T01:42:32.402Z,0
2017-04-22T01:43:44.097Z,0
2017-04-22T01:44:55.133Z,0
2017-04-22T01:46:06.292Z,0
2017-04-22T01:47:17.316Z,0
2017-04-22T01:48:28.552Z,0
2017-04-22T01:49:39.587Z,0
2017-04-22T01:50:50.677Z,0
2017-04-22T01:52:01.898Z,0
2017-04-22T01:53:13.121Z,0
2017-04-22T01:54:24.153Z,0
2017-04-22T01:55:35.199Z,0
2017-04-22T01:56:46.218Z,0
2017-04-22T01:57:57.246Z,0
2017-04-22T01:59:08.473Z,0
2017-04-22T02:00:19.497Z,0
2017-04-22T02:01:30.723Z,0
2017-04-22T02:02:41.953Z,0
2017-04-22T02:03:53.188Z,0
2017-04-22T02:05:04.247Z,0
2017-04-22T02:06:15.326Z,0
2017-04-22T02:07:26.372Z,0
2017-04-22T02:08:37.398Z,0
2017-04-22T02:09:48.421Z,0
2017-04-22T02:10:59.710Z,0
2017-04-22T02:12:11.144Z,0
2017-04-22T02:13:22.169Z,0
2017-04-22T02:14:33.197Z,0
2017-04-22T02:15:44.223Z,0
2017-04-22T02:16:55.288Z,0
2017-04-22T02:18:06.543Z,0
2017-04-22T02:19:17.586Z,0
2017-04-22T02:20:28.622Z,0
2017-04-22T02:21:39.667Z,0
2017-04-22T02:22:50.898Z,0
2017-04-22T02:24:01.923Z,0
2017-04-22T02:25:12.944Z,0
2017-04-22T02:26:23.974Z,0
2017-04-22T02:27:35.009Z,0
2017-04-22T02:28:46.050Z,0
2017-04-22T02:29:57.276Z,0
2017-04-22T02:31:08.307Z,0
2017-04-22T02:32:19.379Z,0
2017-04-22T02:33:30.402Z,0
2017-04-22T02:34:41.421Z,0
2017-04-22T02:35:52.450Z,0
2017-04-22T02:37:03.601Z,0
2017-04-22T02:38:14.700Z,0
2017-04-22T02:39:25.732Z,0
2017-04-22T02:40:36.756Z,0
2017-04-22T02:41:47.992Z,0
2017-04-22T02:42:59.227Z,0
2017-04-22T02:44:10.250Z,0
2017-04-22T02:45:21.270Z,0
2017-04-22T02:46:32.296Z,0
2017-04-22T02:47:43.372Z,0
2017-04-22T02:48:54.393Z,0
2017-04-22T02:50:05.411Z,0
2017-04-22T02:51:16.463Z,0
2017-04-22T02:52:27.489Z,0
2017-04-22T02:53:38.722Z,0
2017-04-22T02:54:49.744Z,0
2017-04-22T02:56:00.773Z,0
2017-04-22T02:57:11.990Z,0
2017-04-22T02:58:23.077Z,0
2017-04-22T02:59:34.302Z,0
2017-04-22T03:00:45.528Z,0
2017-04-22T03:01:56.970Z,0
2017-04-22T03:03:07.999Z,0
2017-04-22T03:04:19.256Z,0
2017-04-22T03:05:30.399Z,0
2017-04-22T03:06:41.426Z,0
2017-04-22T03:07:52.693Z,0
2017-04-22T03:09:03.909Z,0
2017-04-22T03:10:14.925Z,0
2017-04-22T03:11:25.947Z,0
2017-04-22T03:12:37.176Z,0
2017-04-22T03:13:48.255Z,0
2017-04-22T03:14:59.284Z,0
2017-04-22T03:16:10.311Z,0
2017-04-22T03:17:21.338Z,0
2017-04-22T03:18:32.363Z,0
2017-04-22T03:19:43.591Z,0
2017-04-22T03:20:54.618Z,0
2017-04-22T03:22:05.635Z,0
2017-04-22T03:23:16.656Z,0
2017-04-22T03:24:27.686Z,0
2017-04-22T03:25:38.720Z,0
2017-04-22T03:26:49.744Z,0
2017-04-22T03:28:00.783Z,0
2017-04-22T03:29:12.098Z,0
2017-04-22T03:30:23.125Z,0
2017-04-22T03:31:34.133Z,0
2017-04-22T03:32:45.162Z,0
2017-04-22T03:33:56.199Z,0
2017-04-22T03:35:07.231Z,0
2017-04-22T03:36:18.250Z,0
2017-04-22T03:37:29.485Z,0
2017-04-22T03:38:40.766Z,0
2017-04-22T03:39:51.781Z,0
2017-04-22T03:41:02.797Z,0
2017-04-22T03:42:13.831Z,0
2017-04-22T03:43:25.056Z,0
2017-04-22T03:44:36.079Z,0
2017-04-22T03:45:47.119Z,0
2017-04-22T03:46:58.145Z,0
2017-04-22T03:48:09.167Z,4
2017-04-22T03:49:20.198Z,0
2017-04-22T03:50:31.267Z,0
2017-04-22T03:51:42.291Z,4
2017-04-22T03:52:53.311Z,4
2017-04-22T03:54:04.500Z,4
2017-04-22T03:55:15.536Z,4
2017-04-22T03:56:26.559Z,4
2017-04-22T03:57:37.769Z,4
2017-04-22T03:58:48.794Z,4
2017-04-22T03:59:59.826Z,8
2017-04-22T04:01:10.860Z,12
2017-04-22T04:02:21.877Z,12
2017-04-22T04:03:32.901Z,16
2017-04-22T04:04:44.135Z,16
2017-04-22T04:05:55.159Z,20
2017-04-22T04:07:06.267Z,20
2017-04-22T04:08:17.551Z,24
2017-04-22T04:09:28.580Z,28
2017-04-22T04:10:39.697Z,32
2017-04-22T04:11:50.923Z,40
2017-04-22T04:13:01.945Z,52
2017-04-22T04:14:13.166Z,64
2017-04-22T04:15:24.271Z,72
2017-04-22T04:16:35.294Z,76
2017-04-22T04:17:46.322Z,80
2017-04-22T04:18:57.358Z,84
2017-04-22T04:20:08.383Z,96
2017-04-22T04:21:19.423Z,108
2017-04-22T04:22:30.467Z,128
2017-04-22T04:23:41.707Z,140
2017-04-22T04:24:52.725Z,156
2017-04-22T04:26:04.005Z,168
2017-04-22T04:27:15.018Z,180
2017-04-22T04:28:26.038Z,204
2017-04-22T04:29:37.059Z,228
2017-04-22T04:30:48.092Z,264
2017-04-22T04:31:59.122Z,316
2017-04-22T04:33:10.185Z,360
2017-04-22T04:34:21.200Z,384
2017-04-22T04:35:32.227Z,428
2017-04-22T04:36:43.302Z,480
2017-04-22T04:37:54.323Z,532
2017-04-22T04:39:05.346Z,548
2017-04-22T04:40:16.781Z,592
2017-04-22T04:41:27.802Z,648
2017-04-22T04:42:38.833Z,716
2017-04-22T04:43:49.867Z,816
2017-04-22T04:45:01.295Z,808
2017-04-22T04:46:12.319Z,764
2017-04-22T04:47:23.325Z,812
2017-04-22T04:48:34.352Z,900
2017-04-22T04:49:45.379Z,1024
2017-04-22T04:50:56.411Z,1112
2017-04-22T04:52:07.497Z,1244
2017-04-22T04:53:18.513Z,1408
2017-04-22T04:54:29.747Z,1712
2017-04-22T04:55:40.781Z,1888
2017-04-22T04:56:52.052Z,2244
2017-04-22T04:58:03.082Z,2504
2017-04-22T04:59:14.105Z,1668
2017-04-22T05:00:25.134Z,1584
2017-04-22T05:01:36.171Z,1540
2017-04-22T05:02:47.187Z,1608
2017-04-22T05:03:58.208Z,1724
2017-04-22T05:05:09.432Z,1852
2017-04-22T05:06:20.471Z,1964
2017-04-22T05:07:31.701Z,2056
2017-04-22T05:08:42.814Z,2176
2017-04-22T05:09:54.044Z,2204
2017-04-22T05:11:05.075Z,2292
2017-04-22T05:12:16.307Z,2416
2017-04-22T05:13:27.375Z,2796
2017-04-22T05:14:38.402Z,3568
2017-04-22T05:15:49.567Z,3696
2017-04-22T05:17:00.988Z,3048
2017-04-22T05:18:12.023Z,2976
2017-04-22T05:19:23.445Z,3380
2017-04-22T05:20:34.470Z,4092
2017-04-22T05:21:45.493Z,4012
2017-04-22T05:22:56.715Z,4132
2017-04-22T05:24:07.747Z,4156
2017-04-22T05:25:18.782Z,4208
2017-04-22T05:26:29.811Z,4312
2017-04-22T05:27:41.043Z,4380
2017-04-22T05:28:52.317Z,4528
2017-04-22T05:30:03.356Z,4820
2017-04-22T05:31:14.380Z,4332
2017-04-22T05:32:25.601Z,5272
2017-04-22T05:33:36.622Z,4756
2017-04-22T05:34:47.668Z,4568
2017-04-22T05:35:58.675Z,6676
2017-04-22T05:37:09.893Z,6116
2017-04-22T05:38:20.925Z,4820
2017-04-22T05:39:32.155Z,5336
2017-04-22T05:40:43.390Z,5624
2017-04-22T05:41:54.416Z,5756
2017-04-22T05:43:05.636Z,6464
2017-04-22T05:44:16.665Z,7148
2017-04-22T05:45:27.698Z,8076
2017-04-22T05:46:38.716Z,9000
2017-04-22T05:47:49.750Z,9760
2017-04-22T05:49:00.783Z,10244
2017-04-22T05:50:11.824Z,11884
2017-04-22T05:51:22.846Z,11176
2017-04-22T05:52:33.871Z,10532
2017-04-22T05:53:44.911Z,8120
2017-04-22T05:54:55.942Z,10400
2017-04-22T05:56:06.967Z,12392
2017-04-22T05:57:17.999Z,17856
2017-04-22T05:58:29.083Z,16288
2017-04-22T05:59:40.120Z,11992
2017-04-22T06:00:51.147Z,13520
2017-04-22T06:02:02.165Z,13288
2017-04-22T06:03:13.198Z,13456
2017-04-22T06:04:24.222Z,11172
2017-04-22T06:05:35.244Z,11576
2017-04-22T06:06:46.263Z,16064
2017-04-22T06:07:57.313Z,24384
2017-04-22T06:09:08.549Z,28160
2017-04-22T06:10:19.680Z,32928
2017-04-22T06:11:30.709Z,8216
2017-04-22T06:12:41.736Z,13252
2017-04-22T06:13:52.835Z,11492
2017-04-22T06:15:03.860Z,19584
2017-04-22T06:16:14.887Z,23136
2017-04-22T06:17:25.941Z,25344
2017-04-22T06:18:36.979Z,30592
2017-04-22T06:19:48.004Z,19552
2017-04-22T06:20:59.024Z,10864
2017-04-22T06:22:10.045Z,9860
2017-04-22T06:23:21.095Z,10056
2017-04-22T06:24:32.128Z,14048
2017-04-22T06:25:43.162Z,9412
2017-04-22T06:26:54.184Z,33216
2017-04-22T06:28:05.216Z,49376
2017-04-22T06:29:16.235Z,11112
2017-04-22T06:30:27.279Z,32512
2017-04-22T06:31:38.312Z,58112
2017-04-22T06:32:49.339Z,13868
2017-04-22T06:34:00.582Z,11512
2017-04-22T06:35:11.855Z,22688
2017-04-22T06:36:22.886Z,62304
2017-04-22T06:37:34.113Z,60096
2017-04-22T06:38:45.297Z,8416
2017-04-22T06:39:56.574Z,43648
2017-04-22T06:41:07.728Z,39360
2017-04-22T06:42:18.752Z,12824
2017-04-22T06:43:29.786Z,36928
2017-04-22T06:44:40.961Z,13060
2017-04-22T06:45:51.989Z,30112
2017-04-22T06:47:03.106Z,12168
2017-04-22T06:48:14.367Z,27584
2017-04-22T06:49:25.540Z,69664
2017-04-22T06:50:36.796Z,31264
2017-04-22T06:51:47.834Z,9432
2017-04-22T06:52:58.946Z,10440
2017-04-22T06:54:09.970Z,63072
2017-04-22T06:55:21.465Z,18912
2017-04-22T06:56:32.487Z,55424
2017-04-22T06:57:43.531Z,14676
2017-04-22T06:58:54.768Z,12208
2017-04-22T07:00:06.041Z,11308
2017-04-22T07:01:17.070Z,42976
2017-04-22T07:02:28.110Z,10016
2017-04-22T07:03:39.143Z,8200
2017-04-22T07:04:50.178Z,11472
2017-04-22T07:06:01.411Z,64096
2017-04-22T07:07:12.440Z,11096
2017-04-22T07:08:23.466Z,12976
2017-04-22T07:09:34.497Z,71488
2017-04-22T07:10:45.523Z,18592
2017-04-22T07:11:56.558Z,61248
2017-04-22T07:13:07.790Z,16960
2017-04-22T07:14:18.827Z,10296
2017-04-22T07:15:29.872Z,10096
2017-04-22T07:16:41.162Z,10124
2017-04-22T07:17:52.185Z,9496
2017-04-22T07:19:03.426Z,8272
2017-04-22T07:20:14.464Z,8640
2017-04-22T07:21:25.491Z,8592
2017-04-22T07:22:36.517Z,16384
2017-04-22T07:23:47.556Z,81920
2017-04-22T07:24:58.594Z,59744
2017-04-22T07:26:09.820Z,12556
2017-04-22T07:27:21.057Z,9440
2017-04-22T07:28:32.100Z,10768
2017-04-22T07:29:43.126Z,82176
2017-04-22T07:30:54.151Z,21312
2017-04-22T07:32:05.176Z,77728
2017-04-22T07:33:16.213Z,15372
2017-04-22T07:34:27.253Z,72800
2017-04-22T07:35:38.493Z,81184
2017-04-22T07:36:49.524Z,83168
2017-04-22T07:38:00.568Z,34720
2017-04-22T07:39:11.603Z,82592
2017-04-22T07:40:22.835Z,62528
2017-04-22T07:41:33.919Z,81888
2017-04-22T07:42:44.962Z,67264
2017-04-22T07:43:56.001Z,81728
2017-04-22T07:45:07.033Z,77376
2017-04-22T07:46:18.069Z,76416
2017-04-22T07:47:29.318Z,12120
2017-04-22T07:48:40.353Z,10744
2017-04-22T07:49:51.392Z,10868
2017-04-22T07:51:02.426Z,11208
2017-04-22T07:52:13.448Z,10720
2017-04-22T07:53:24.484Z,11060
2017-04-22T07:54:35.723Z,15456
2017-04-22T07:55:46.753Z,21888
2017-04-22T07:56:57.821Z,11096
2017-04-22T07:58:09.319Z,5764
2017-04-22T07:59:20.347Z,3472
2017-04-22T08:00:31.617Z,2896
2017-04-22T08:01:42.855Z,2956
2017-04-22T08:02:53.896Z,3160
2017-04-22T08:04:04.936Z,4388
2017-04-22T08:05:15.970Z,7064
2017-04-22T08:06:26.998Z,9680
2017-04-22T08:07:38.226Z,12056
2017-04-22T08:08:49.262Z,21888
2017-04-22T08:10:00.292Z,82080
2017-04-22T08:11:11.534Z,83680
2017-04-22T08:12:22.607Z,41504
2017-04-22T08:13:33.641Z,86240
2017-04-22T08:14:44.685Z,51904
2017-04-22T08:15:55.722Z,78368
2017-04-22T08:17:06.763Z,78976
2017-04-22T08:18:17.809Z,76928
2017-04-22T08:19:29.005Z,74144
2017-04-22T08:20:40.053Z,76928
2017-04-22T08:21:51.092Z,81312
2017-04-22T08:23:02.334Z,81184
2017-04-22T08:24:13.372Z,78688
2017-04-22T08:25:24.416Z,79936
2017-04-22T08:26:35.464Z,80000
2017-04-22T08:27:46.569Z,79200
2017-04-22T08:28:57.811Z,77248
2017-04-22T08:30:08.857Z,81696
2017-04-22T08:31:19.905Z,77280
2017-04-22T08:32:30.944Z,16672
2017-04-22T08:33:41.988Z,84960
2017-04-22T08:34:53.019Z,83168
2017-04-22T08:36:04.065Z,67264
2017-04-22T08:37:15.309Z,82336
2017-04-22T08:38:26.558Z,80864
2017-04-22T08:39:37.602Z,41952
2017-04-22T08:40:49.043Z,16288
2017-04-22T08:42:00.288Z,15044
2017-04-22T08:43:11.384Z,20288
2017-04-22T08:44:22.507Z,13632
2017-04-22T08:45:33.559Z,11592
2017-04-22T08:46:54.634Z,10844
2017-04-22T08:48:05.729Z,12208
2017-04-22T08:49:16.769Z,74208
2017-04-22T08:50:27.823Z,16416
2017-04-22T08:51:38.867Z,11208
2017-04-22T08:52:49.903Z,32640
2017-04-22T08:54:01.145Z,76896
2017-04-22T08:55:12.191Z,74464
2017-04-22T08:56:23.431Z,72544
2017-04-22T08:57:34.479Z,69408
2017-04-22T08:58:45.529Z,69248
2017-04-22T08:59:56.578Z,68544
2017-04-22T09:01:07.626Z,68224
2017-04-22T09:02:18.670Z,49408
2017-04-22T09:03:29.761Z,71392
2017-04-22T09:04:40.797Z,63648
2017-04-22T09:05:51.843Z,78688
2017-04-22T09:07:02.886Z,77792
2017-04-22T09:08:14.139Z,36288
2017-04-22T09:09:25.186Z,70560
2017-04-22T09:10:36.424Z,49824
2017-04-22T09:11:47.675Z,75648
2017-04-22T09:12:59.122Z,75744
2017-04-22T09:14:10.162Z,76288
2017-04-22T09:15:21.210Z,79808
2017-04-22T09:16:32.252Z,78176
2017-04-22T09:17:43.302Z,77248
2017-04-22T09:18:54.350Z,75392
2017-04-22T09:20:05.600Z,77280
2017-04-22T09:21:16.642Z,74784
2017-04-22T09:22:27.686Z,33696
2017-04-22T09:23:38.936Z,74592
2017-04-22T09:24:50.186Z,70720
2017-04-22T09:26:01.231Z,14648
2017-04-22T09:27:12.285Z,72992
2017-04-22T09:28:23.533Z,17056
2017-04-22T09:29:34.578Z,12740
2017-04-22T09:30:45.621Z,10600
2017-04-22T09:31:56.868Z,9576
2017-04-22T09:33:08.112Z,8564
2017-04-22T09:34:19.202Z,7884
2017-04-22T09:35:30.247Z,7224
2017-04-22T09:36:41.491Z,6908
2017-04-22T09:37:52.730Z,7120
2017-04-22T09:39:03.765Z,9864
2017-04-22T09:40:14.809Z,58016
2017-04-22T09:41:25.850Z,18784
2017-04-22T09:42:36.888Z,13644
2017-04-22T09:43:48.347Z,15320
2017-04-22T09:44:59.397Z,16768
2017-04-22T09:46:10.428Z,13220
2017-04-22T09:47:21.466Z,45568
2017-04-22T09:48:32.705Z,65600
2017-04-22T09:49:43.738Z,63712
2017-04-22T09:50:54.790Z,61504
2017-04-22T09:52:05.829Z,62112
2017-04-22T09:53:17.082Z,61344
2017-04-22T09:54:28.127Z,36064
2017-04-22T09:55:39.164Z,11744
2017-04-22T09:56:50.228Z,10192
2017-04-22T09:58:01.278Z,9568
2017-04-22T09:59:12.326Z,9368
2017-04-22T10:00:23.779Z,8964
2017-04-22T10:01:34.810Z,8000
2017-04-22T10:02:45.836Z,7456
2017-04-22T10:03:57.040Z,6848
2017-04-22T10:05:08.273Z,6432
2017-04-22T10:06:19.510Z,7148
2017-04-22T10:07:30.618Z,7300
2017-04-22T10:08:41.654Z,6532
2017-04-22T10:09:52.684Z,6440
2017-04-22T10:11:03.716Z,6320
2017-04-22T10:12:14.758Z,6288
2017-04-22T10:13:25.989Z,6544
2017-04-22T10:14:37.015Z,8136
2017-04-22T10:15:48.049Z,11132
2017-04-22T10:16:59.069Z,12376
2017-04-22T10:18:10.120Z,15648
2017-04-22T10:19:21.172Z,12132
2017-04-22T10:20:32.257Z,11168
2017-04-22T10:21:43.515Z,11476
2017-04-22T10:22:54.539Z,11644
2017-04-22T10:24:05.584Z,12908
2017-04-22T10:25:16.631Z,12068
2017-04-22T10:26:27.664Z,13032
2017-04-22T10:27:38.699Z,13556
2017-04-22T10:28:49.791Z,64928
2017-04-22T10:30:00.837Z,23072
2017-04-22T10:31:11.926Z,19456
2017-04-22T10:32:23.000Z,68960
2017-04-22T10:33:34.041Z,33696
2017-04-22T10:34:45.111Z,68544
2017-04-22T10:35:56.375Z,21280
2017-04-22T10:37:07.806Z,22144
2017-04-22T10:38:19.054Z,18688
2017-04-22T10:39:30.495Z,18624
2017-04-22T10:40:41.736Z,19648
2017-04-22T10:41:52.764Z,24000
2017-04-22T10:43:03.831Z,20992
2017-04-22T10:44:14.875Z,19392
2017-04-22T10:45:25.908Z,18208
2017-04-22T10:46:36.944Z,18784
2017-04-22T10:47:47.981Z,18976
2017-04-22T10:48:59.020Z,21344
2017-04-22T10:50:10.053Z,22464
2017-04-22T10:51:21.479Z,28192
2017-04-22T10:52:32.513Z,23328
2017-04-22T10:53:43.759Z,40480
2017-04-22T10:54:54.781Z,18464
2017-04-22T10:56:05.837Z,14416
2017-04-22T10:57:17.064Z,13400
2017-04-22T10:58:28.133Z,14672
2017-04-22T10:59:39.368Z,14420
2017-04-22T11:00:50.402Z,13916
2017-04-22T11:02:01.484Z,47200
2017-04-22T11:03:12.660Z,16640
2017-04-22T11:04:23.905Z,15744
2017-04-22T11:05:35.171Z,14100
2017-04-22T11:06:46.439Z,46208
2017-04-22T11:07:57.473Z,23008
2017-04-22T11:09:08.503Z,14404
2017-04-22T11:10:19.537Z,16096
2017-04-22T11:11:30.567Z,15424
2017-04-22T11:12:42.022Z,14416
2017-04-22T11:13:53.261Z,19840
2017-04-22T11:15:04.309Z,12676
2017-04-22T11:16:15.336Z,11372
2017-04-22T11:17:26.580Z,10924
2017-04-22T11:18:37.614Z,10284
2017-04-22T11:19:48.641Z,9236
2017-04-22T11:20:59.680Z,8616
2017-04-22T11:22:10.919Z,8384
2017-04-22T11:23:21.958Z,8492
2017-04-22T11:24:33.003Z,8500
2017-04-22T11:25:44.037Z,8376
2017-04-22T11:26:55.081Z,8260
2017-04-22T11:28:06.345Z,8044
2017-04-22T11:29:17.772Z,7180
2017-04-22T11:30:28.813Z,6560
2017-04-22T11:31:39.838Z,6628
2017-04-22T11:32:51.067Z,7344
2017-04-22T11:34:02.161Z,7968
2017-04-22T11:35:13.226Z,8324
2017-04-22T11:36:24.597Z,8900
2017-04-22T11:37:35.627Z,28416
2017-04-22T11:38:46.663Z,29408
2017-04-22T11:39:57.888Z,28000
2017-04-22T11:41:09.336Z,26752
2017-04-22T11:42:20.367Z,26880
2017-04-22T11:43:31.412Z,26528
2017-04-22T11:44:42.462Z,25984
2017-04-22T11:45:53.494Z,26112
2017-04-22T11:47:04.722Z,25120
2017-04-22T11:48:15.823Z,25408
2017-04-22T11:49:26.854Z,27584
2017-04-22T11:50:37.893Z,8436
2017-04-22T11:51:48.934Z,7780
2017-04-22T11:52:59.963Z,7496
2017-04-22T11:54:11.010Z,6732
2017-04-22T11:55:22.042Z,5944
2017-04-22T11:56:33.072Z,5676
2017-04-22T11:57:44.112Z,5908
2017-04-22T11:58:55.147Z,8256
2017-04-22T12:00:06.183Z,8428
2017-04-22T12:01:17.228Z,23264
2017-04-22T12:02:28.270Z,23136
2017-04-22T12:03:39.323Z,21824
2017-04-22T12:04:50.374Z,20896
2017-04-22T12:06:01.421Z,20192
2017-04-22T12:07:12.461Z,19392
2017-04-22T12:08:23.701Z,18240
2017-04-22T12:09:34.729Z,17536
2017-04-22T12:10:46.246Z,9144
2017-04-22T12:11:57.522Z,19488
2017-04-22T12:13:08.771Z,20768
2017-04-22T12:14:19.998Z,10932
2017-04-22T12:15:31.235Z,10160
2017-04-22T12:16:42.390Z,9320
2017-04-22T12:17:53.620Z,8024
2017-04-22T12:19:04.712Z,7184
2017-04-22T12:20:15.753Z,7312
2017-04-22T12:21:26.790Z,7100
2017-04-22T12:22:38.035Z,7176
2017-04-22T12:23:49.088Z,7024
2017-04-22T12:25:00.150Z,6876
2017-04-22T12:26:11.184Z,6672
2017-04-22T12:27:22.225Z,6696
2017-04-22T12:28:33.300Z,6968
2017-04-22T12:29:44.382Z,10412
2017-04-22T12:30:55.417Z,9136
2017-04-22T12:32:06.446Z,10508
2017-04-22T12:33:17.485Z,12204
2017-04-22T12:34:28.515Z,13012
2017-04-22T12:35:39.544Z,14592
2017-04-22T12:36:50.786Z,14208
2017-04-22T12:38:01.816Z,13908
2017-04-22T12:39:13.052Z,12204
2017-04-22T12:40:24.097Z,12572
2017-04-22T12:41:35.142Z,12056
2017-04-22T12:42:46.167Z,11544
2017-04-22T12:43:57.206Z,10428
2017-04-22T12:45:08.241Z,9124
2017-04-22T12:46:19.279Z,8436
2017-04-22T12:47:30.302Z,7436
2017-04-22T12:48:41.359Z,6272
2017-04-22T12:49:52.910Z,5884
2017-04-22T12:51:03.946Z,5784
2017-04-22T12:52:15.033Z,5528
2017-04-22T12:53:26.128Z,5732
2017-04-22T12:54:37.160Z,6436
2017-04-22T12:55:48.196Z,7644
2017-04-22T12:56:59.237Z,8632
2017-04-22T12:58:10.476Z,9324
2017-04-22T12:59:21.709Z,9928
2017-04-22T13:00:32.781Z,10284
2017-04-22T13:01:43.800Z,10416
2017-04-22T13:02:54.832Z,10556
2017-04-22T13:04:05.858Z,10800
2017-04-22T13:05:17.097Z,11036
2017-04-22T13:06:28.138Z,11360
2017-04-22T13:07:39.379Z,15072
2017-04-22T13:08:50.422Z,13080
2017-04-22T13:10:01.472Z,14240
2017-04-22T13:11:12.549Z,12808
2017-04-22T13:12:23.600Z,12044
2017-04-22T13:13:34.652Z,10980
2017-04-22T13:14:45.689Z,9940
2017-04-22T13:15:56.716Z,8936
2017-04-22T13:17:07.750Z,7756
2017-04-22T13:18:18.789Z,6988
2017-04-22T13:19:29.829Z,6552
2017-04-22T13:20:40.871Z,6388
2017-04-22T13:21:51.915Z,6464
2017-04-22T13:23:02.948Z,6348
2017-04-22T13:24:14.189Z,5964
2017-04-22T13:25:25.226Z,5540
2017-04-22T13:26:36.256Z,5452
2017-04-22T13:27:47.290Z,5644
2017-04-22T13:28:58.404Z,5700
2017-04-22T13:30:09.430Z,5444
2017-04-22T13:31:20.503Z,5280
2017-04-22T13:32:31.759Z,5332
2017-04-22T13:33:42.992Z,5672
2017-04-22T13:34:54.030Z,6464
2017-04-22T13:36:05.059Z,7528
2017-04-22T13:37:16.084Z,9420
2017-04-22T13:38:27.122Z,11464
2017-04-22T13:39:38.373Z,9652
2017-04-22T13:40:49.399Z,9664
2017-04-22T13:42:00.666Z,9896
2017-04-22T13:43:11.700Z,9712
2017-04-22T13:44:22.737Z,9496
2017-04-22T13:45:33.772Z,9192
2017-04-22T13:46:44.829Z,8584
2017-04-22T13:47:55.870Z,8056
2017-04-22T13:49:07.114Z,7712
2017-04-22T13:50:18.347Z,7432
2017-04-22T13:51:29.378Z,7252
2017-04-22T13:52:40.462Z,7076
2017-04-22T13:53:51.710Z,6984
2017-04-22T13:55:02.738Z,7016
2017-04-22T13:56:13.763Z,7168
2017-04-22T13:57:24.780Z,7284
2017-04-22T13:58:35.818Z,7504
2017-04-22T13:59:46.853Z,7976
2017-04-22T14:00:58.104Z,8620
2017-04-22T14:02:09.124Z,11156
2017-04-22T14:03:20.193Z,9864
2017-04-22T14:04:31.421Z,9516
2017-04-22T14:05:42.451Z,9252
2017-04-22T14:06:53.523Z,9020
2017-04-22T14:08:04.562Z,8992
2017-04-22T14:09:15.793Z,9208
2017-04-22T14:10:26.832Z,9360
2017-04-22T14:11:38.056Z,9232
2017-04-22T14:12:49.094Z,9088
2017-04-22T14:14:00.124Z,9228
2017-04-22T14:15:11.158Z,9048
2017-04-22T14:16:22.234Z,9068
2017-04-22T14:17:33.277Z,9052
2017-04-22T14:18:44.309Z,9052
2017-04-22T14:19:55.531Z,8864
2017-04-22T14:21:06.557Z,8488
2017-04-22T14:22:17.910Z,8276
2017-04-22T14:23:29.104Z,7824
2017-04-22T14:24:40.140Z,7668
2017-04-22T14:25:51.168Z,7548
2017-04-22T14:27:02.195Z,7460
2017-04-22T14:28:13.433Z,7408
2017-04-22T14:29:24.528Z,7452
2017-04-22T14:30:35.569Z,7620
2017-04-22T14:31:46.674Z,7608
2017-04-22T14:32:57.709Z,7132
2017-04-22T14:34:08.788Z,7264
2017-04-22T14:35:19.835Z,7516
2017-04-22T14:36:31.075Z,7300
2017-04-22T14:37:42.150Z,7464
2017-04-22T14:38:53.386Z,7868
2017-04-22T14:40:04.412Z,8196
2017-04-22T14:41:15.451Z,8236
2017-04-22T14:42:26.683Z,7948
2017-04-22T14:43:37.714Z,8036
2017-04-22T14:44:48.748Z,8192
2017-04-22T14:45:59.777Z,8856
2017-04-22T14:47:10.816Z,7832
2017-04-22T14:48:21.857Z,6944
2017-04-22T14:49:32.889Z,5976
2017-04-22T14:50:43.921Z,5728
2017-04-22T14:51:54.950Z,6452
2017-04-22T14:53:05.979Z,6892
2017-04-22T14:54:17.215Z,6888
2017-04-22T14:55:28.463Z,6676
2017-04-22T14:56:39.496Z,6368
2017-04-22T14:57:50.532Z,5996
2017-04-22T14:59:01.821Z,5624
2017-04-22T15:00:13.065Z,5212
2017-04-22T15:01:24.495Z,5068
2017-04-22T15:02:36.143Z,5136
2017-04-22T15:03:48.483Z,5152
2017-04-22T15:05:00.011Z,4976
2017-04-22T15:06:11.365Z,4792
2017-04-22T15:07:22.727Z,4796
2017-04-22T15:08:34.834Z,5056
2017-04-22T15:09:47.455Z,4964
2017-04-22T15:11:00.850Z,4836
2017-04-22T15:12:12.575Z,4732
2017-04-22T15:13:24.694Z,4524
2017-04-22T15:14:36.132Z,4160
2017-04-22T15:15:47.598Z,4036
2017-04-22T15:16:58.932Z,4364
2017-04-22T15:18:10.199Z,4436
2017-04-22T15:19:21.517Z,4392
2017-04-22T15:20:32.936Z,4388
2017-04-22T15:21:44.528Z,4124
2017-04-22T15:22:56.372Z,3908
2017-04-22T15:24:07.717Z,3876
2017-04-22T15:25:19.128Z,3616
2017-04-22T15:26:30.822Z,3320
2017-04-22T15:27:42.696Z,3300
2017-04-22T15:28:55.305Z,3300
2017-04-22T15:30:06.607Z,3704
2017-04-22T15:31:18.131Z,4368
2017-04-22T15:32:29.992Z,5032
2017-04-22T15:33:41.490Z,5504
2017-04-22T15:34:52.791Z,5968
2017-04-22T15:36:04.260Z,5988
2017-04-22T15:37:16.286Z,6076
2017-04-22T15:38:28.517Z,5992
2017-04-22T15:39:40.302Z,5712
2017-04-22T15:40:52.514Z,5420
2017-04-22T15:42:05.192Z,5244
2017-04-22T15:43:19.910Z,5096
2017-04-22T15:44:33.754Z,4708
2017-04-22T15:45:46.383Z,4936
2017-04-22T15:46:57.784Z,5324
2017-04-22T15:48:09.648Z,5296
2017-04-22T15:49:21.127Z,4992
2017-04-22T15:50:32.839Z,4916
2017-04-22T15:51:45.315Z,4956
2017-04-22T15:52:57.287Z,4860
2017-04-22T15:54:08.711Z,4856
2017-04-22T15:55:20.085Z,4916
2017-04-22T15:56:31.851Z,4880
2017-04-22T15:57:43.633Z,4772
2017-04-22T15:58:55.047Z,4740
2017-04-22T16:00:06.896Z,4748
2017-04-22T16:01:18.863Z,4804
2017-04-22T16:02:30.743Z,4756